sensor_id;sensor_type;location;lat;lon;timestamp;pressure;altitude;pressure_sealevel;temperature;humidity
11077;BME280;5591;42.626;23.380;2022-10-19T00:01:07;94814.09;;;7.66;100.00
11077;BME280;5591;42.626;23.380;2022-10-19T00:03:36;94809.09;;;7.47;100.00
11077;BME280;5591;42.626;23.380;2022-10-19T00:06:11;94811.88;;;7.45;100.00
11077;BME280;5591;42.626;23.380;2022-10-19T00:08:38;94805.50;;;7.48;100.00
11077;BME280;5591;42.626;23.380;2022-10-19T00:11:05;94797.88;;;7.54;100.00
11077;BME280;5591;42.626;23.380;2022-10-19T00:13:32;94805.72;;;7.54;100.00
11077;BME280;5591;42.626;23.380;2022-10-19T00:16:01;94803.22;;;7.45;100.00
11077;BME280;5591;42.626;23.380;2022-10-19T00:18:27;94800.28;;;7.48;100.00
11077;BME280;5591;42.626;23.380;2022-10-19T00:21:01;94798.50;;;7.48;100.00
11077;BME280;5591;42.626;23.380;2022-10-19T00:23:28;94797.22;;;7.52;100.00
11077;BME280;5591;42.626;23.380;2022-10-19T00:25:56;94796.09;;;7.55;100.00
11077;BME280;5591;42.626;23.380;2022-10-19T00:28:22;94793.63;;;7.53;100.00
11077;BME280;5591;42.626;23.380;2022-10-19T00:30:49;94786.25;;;7.49;100.00
11077;BME280;5591;42.626;23.380;2022-10-19T00:33:17;94780.50;;;7.37;100.00
11077;BME280;5591;42.626;23.380;2022-10-19T00:35:47;94773.75;;;7.27;100.00
11077;BME280;5591;42.626;23.380;2022-10-19T00:38:15;94771.13;;;7.19;100.00
11077;BME280;5591;42.626;23.380;2022-10-19T00:40:42;94755.75;;;7.16;100.00
11077;BME280;5591;42.626;23.380;2022-10-19T00:43:12;94759.31;;;7.15;100.00
11077;BME280;5591;42.626;23.380;2022-10-19T00:45:39;94753.41;;;7.05;100.00
11077;BME280;5591;42.626;23.380;2022-10-19T00:48:07;94747.19;;;6.98;100.00
11077;BME280;5591;42.626;23.380;2022-10-19T00:50:36;94748.81;;;6.99;100.00
11077;BME280;5591;42.626;23.380;2022-10-19T00:53:04;94741.25;;;6.88;100.00
11077;BME280;5591;42.626;23.380;2022-10-19T00:55:31;94737.66;;;6.89;100.00
11077;BME280;5591;42.626;23.380;2022-10-19T00:57:59;94741.25;;;6.88;100.00
11077;BME280;5591;42.626;23.380;2022-10-19T01:00:28;94743.84;;;6.88;100.00
11077;BME280;5591;42.626;23.380;2022-10-19T01:02:55;94752.47;;;6.89;100.00
11077;BME280;5591;42.626;23.380;2022-10-19T01:05:23;94738.63;;;6.88;100.00
11077;BME280;5591;42.626;23.380;2022-10-19T01:07:52;94729.47;;;6.84;100.00
11077;BME280;5591;42.626;23.380;2022-10-19T01:10:23;94729.47;;;6.84;100.00
11077;BME280;5591;42.626;23.380;2022-10-19T01:13:05;94727.88;;;6.91;100.00
11077;BME280;5591;42.626;23.380;2022-10-19T01:15:41;94723.13;;;6.87;100.00
11077;BME280;5591;42.626;23.380;2022-10-19T01:18:16;94725.47;;;6.98;100.00
11077;BME280;5591;42.626;23.380;2022-10-19T01:24:25;94713.97;;;6.83;100.00
11077;BME280;5591;42.626;23.380;2022-10-19T01:30:13;94711.25;;;6.67;100.00
11077;BME280;5591;42.626;23.380;2022-10-19T01:35:36;94706.81;;;6.59;100.00
11077;BME280;5591;42.626;23.380;2022-10-19T01:38:13;94704.78;;;6.71;100.00
11077;BME280;5591;42.626;23.380;2022-10-19T01:40:48;94697.69;;;6.63;100.00
11077;BME280;5591;42.626;23.380;2022-10-19T01:43:24;94693.47;;;6.62;100.00
11077;BME280;5591;42.626;23.380;2022-10-19T01:45:58;94682.31;;;6.52;100.00
11077;BME280;5591;42.626;23.380;2022-10-19T01:48:31;94693.78;;;6.59;100.00
11077;BME280;5591;42.626;23.380;2022-10-19T01:51:03;94692.81;;;6.60;100.00
11077;BME280;5591;42.626;23.380;2022-10-19T01:53:36;94701.22;;;6.54;100.00
11077;BME280;5591;42.626;23.380;2022-10-19T01:56:05;94687.06;;;6.57;100.00
11077;BME280;5591;42.626;23.380;2022-10-19T01:58:36;94684.13;;;6.52;100.00
11077;BME280;5591;42.626;23.380;2022-10-19T02:01:08;94695.81;;;6.48;100.00
11077;BME280;5591;42.626;23.380;2022-10-19T02:03:37;94692.91;;;6.33;100.00
11077;BME280;5591;42.626;23.380;2022-10-19T02:06:06;94695.19;;;6.28;100.00
11077;BME280;5591;42.626;23.380;2022-10-19T02:08:37;94690.06;;;6.19;100.00
11077;BME280;5591;42.626;23.380;2022-10-19T02:11:06;94695.72;;;6.14;100.00
11077;BME280;5591;42.626;23.380;2022-10-19T02:13:33;94684.56;;;6.04;100.00
11077;BME280;5591;42.626;23.380;2022-10-19T02:16:08;94682.16;;;6.11;100.00
11077;BME280;5591;42.626;23.380;2022-10-19T02:18:41;94687.44;;;6.01;100.00
11077;BME280;5591;42.626;23.380;2022-10-19T02:21:10;94680.09;;;5.97;100.00
11077;BME280;5591;42.626;23.380;2022-10-19T02:23:37;94677.78;;;5.94;100.00
11077;BME280;5591;42.626;23.380;2022-10-19T02:26:05;94676.31;;;5.91;100.00
11077;BME280;5591;42.626;23.380;2022-10-19T02:28:32;94688.72;;;5.97;100.00
11077;BME280;5591;42.626;23.380;2022-10-19T02:31:00;94687.97;;;6.05;100.00
11077;BME280;5591;42.626;23.380;2022-10-19T02:33:29;94685.31;;;5.97;100.00
11077;BME280;5591;42.626;23.380;2022-10-19T02:35:56;94686.84;;;6.07;100.00
11077;BME280;5591;42.626;23.380;2022-10-19T02:38:24;94678.91;;;6.09;100.00
11077;BME280;5591;42.626;23.380;2022-10-19T02:40:59;94685.00;;;6.00;100.00
11077;BME280;5591;42.626;23.380;2022-10-19T02:43:27;94692.16;;;5.98;100.00
11077;BME280;5591;42.626;23.380;2022-10-19T02:46:00;94678.25;;;6.07;100.00
11077;BME280;5591;42.626;23.380;2022-10-19T02:48:31;94682.94;;;6.03;100.00
11077;BME280;5591;42.626;23.380;2022-10-19T02:50:58;94675.47;;;6.08;100.00
11077;BME280;5591;42.626;23.380;2022-10-19T02:53:25;94672.84;;;6.08;100.00
11077;BME280;5591;42.626;23.380;2022-10-19T02:55:52;94674.34;;;6.11;100.00
11077;BME280;5591;42.626;23.380;2022-10-19T02:58:19;94675.25;;;6.02;100.00
11077;BME280;5591;42.626;23.380;2022-10-19T03:00:46;94665.66;;;6.02;100.00
11077;BME280;5591;42.626;23.380;2022-10-19T03:03:12;94668.41;;;6.01;100.00
11077;BME280;5591;42.626;23.380;2022-10-19T03:05:40;94666.16;;;6.06;100.00
11077;BME280;5591;42.626;23.380;2022-10-19T03:08:07;94669.59;;;6.06;100.00
11077;BME280;5591;42.626;23.380;2022-10-19T03:10:34;94666.78;;;6.00;100.00
11077;BME280;5591;42.626;23.380;2022-10-19T03:13:01;94665.94;;;5.99;100.00
11077;BME280;5591;42.626;23.380;2022-10-19T03:15:27;94674.19;;;5.95;100.00
11077;BME280;5591;42.626;23.380;2022-10-19T03:17:55;94663.94;;;5.93;100.00
11077;BME280;5591;42.626;23.380;2022-10-19T03:20:22;94670.56;;;5.88;100.00
11077;BME280;5591;42.626;23.380;2022-10-19T03:22:50;94680.16;;;5.87;100.00
11077;BME280;5591;42.626;23.380;2022-10-19T03:25:17;94672.00;;;5.82;100.00
11077;BME280;5591;42.626;23.380;2022-10-19T03:27:44;94690.88;;;5.84;100.00
11077;BME280;5591;42.626;23.380;2022-10-19T03:30:10;94677.63;;;5.78;100.00
11077;BME280;5591;42.626;23.380;2022-10-19T03:32:37;94674.19;;;5.77;100.00
11077;BME280;5591;42.626;23.380;2022-10-19T03:35:05;94672.53;;;5.76;100.00
11077;BME280;5591;42.626;23.380;2022-10-19T03:37:32;94677.22;;;5.73;100.00
11077;BME280;5591;42.626;23.380;2022-10-19T03:40:00;94668.97;;;5.60;100.00
11077;BME280;5591;42.626;23.380;2022-10-19T03:42:27;94674.59;;;5.55;100.00
11077;BME280;5591;42.626;23.380;2022-10-19T03:44:54;94666.47;;;5.41;100.00
11077;BME280;5591;42.626;23.380;2022-10-19T03:47:21;94658.84;;;5.39;100.00
11077;BME280;5591;42.626;23.380;2022-10-19T03:49:48;94664.91;;;5.30;100.00
11077;BME280;5591;42.626;23.380;2022-10-19T03:52:15;94657.91;;;5.31;100.00
11077;BME280;5591;42.626;23.380;2022-10-19T03:54:42;94658.84;;;5.39;100.00
11077;BME280;5591;42.626;23.380;2022-10-19T03:57:11;94650.34;;;5.37;100.00
11077;BME280;5591;42.626;23.380;2022-10-19T03:59:38;94654.88;;;5.35;100.00
11077;BME280;5591;42.626;23.380;2022-10-19T04:02:04;94654.31;;;5.41;100.00
11077;BME280;5591;42.626;23.380;2022-10-19T04:04:31;94658.69;;;5.41;100.00
11077;BME280;5591;42.626;23.380;2022-10-19T04:06:58;94654.06;;;5.35;100.00
11077;BME280;5591;42.626;23.380;2022-10-19T04:09:25;94655.63;;;5.45;100.00
11077;BME280;5591;42.626;23.380;2022-10-19T04:11:51;94659.28;;;5.52;100.00
11077;BME280;5591;42.626;23.380;2022-10-19T04:14:20;94659.97;;;5.54;100.00
11077;BME280;5591;42.626;23.380;2022-10-19T04:16:47;94674.16;;;5.60;100.00
11077;BME280;5591;42.626;23.380;2022-10-19T04:19:14;94602.53;;;5.21;100.00
11077;BME280;5591;42.626;23.380;2022-10-19T04:21:42;94647.47;;;5.58;100.00
11077;BME280;5591;42.626;23.380;2022-10-19T04:24:10;94651.25;;;5.46;100.00
11077;BME280;5591;42.626;23.380;2022-10-19T04:26:40;94642.72;;;5.53;100.00
11077;BME280;5591;42.626;23.380;2022-10-19T04:29:07;94640.09;;;5.53;100.00
11077;BME280;5591;42.626;23.380;2022-10-19T04:31:36;94641.66;;;5.46;100.00
11077;BME280;5591;42.626;23.380;2022-10-19T04:34:04;94640.75;;;5.38;100.00
11077;BME280;5591;42.626;23.380;2022-10-19T04:36:31;94642.94;;;5.42;100.00
11077;BME280;5591;42.626;23.380;2022-10-19T04:38:57;94636.84;;;5.34;100.00
11077;BME280;5591;42.626;23.380;2022-10-19T04:41:24;94640.75;;;5.38;100.00
11077;BME280;5591;42.626;23.380;2022-10-19T04:43:54;94635.34;;;5.31;100.00
11077;BME280;5591;42.626;23.380;2022-10-19T04:46:21;94631.75;;;5.32;100.00
11077;BME280;5591;42.626;23.380;2022-10-19T04:48:50;94634.06;;;5.35;100.00
11077;BME280;5591;42.626;23.380;2022-10-19T04:51:17;94632.34;;;5.26;100.00
11077;BME280;5591;42.626;23.380;2022-10-19T04:53:44;94637.84;;;5.23;100.00
11077;BME280;5591;42.626;23.380;2022-10-19T04:56:14;94639.03;;;5.29;100.00
11077;BME280;5591;42.626;23.380;2022-10-19T04:58:41;94632.63;;;5.23;100.00
11077;BME280;5591;42.626;23.380;2022-10-19T05:01:10;94633.16;;;5.27;100.00
11077;BME280;5591;42.626;23.380;2022-10-19T05:03:37;94584.47;;;5.02;100.00
11077;BME280;5591;42.626;23.380;2022-10-19T05:06:06;94597.09;;;5.14;100.00
11077;BME280;5591;42.626;23.380;2022-10-19T05:08:34;94594.34;;;5.16;100.00
11077;BME280;5591;42.626;23.380;2022-10-19T05:11:01;94639.00;;;5.56;100.00
11077;BME280;5591;42.626;23.380;2022-10-19T05:13:30;94629.69;;;5.71;100.00
11077;BME280;5591;42.626;23.380;2022-10-19T05:15:58;94603.97;;;5.50;100.00
11077;BME280;5591;42.626;23.380;2022-10-19T05:18:25;94646.63;;;5.84;100.00
11077;BME280;5591;42.626;23.380;2022-10-19T05:20:59;94640.50;;;5.93;100.00
11077;BME280;5591;42.626;23.380;2022-10-19T05:23:28;94641.06;;;6.05;100.00
11077;BME280;5591;42.626;23.380;2022-10-19T05:25:59;94628.13;;;6.13;100.00
11077;BME280;5591;42.626;23.380;2022-10-19T05:28:26;94632.50;;;6.30;100.00
11077;BME280;5591;42.626;23.380;2022-10-19T05:30:53;94620.66;;;6.43;100.00
11077;BME280;5591;42.626;23.380;2022-10-19T05:33:19;94628.44;;;6.61;100.00
11077;BME280;5591;42.626;23.380;2022-10-19T05:35:47;94632.06;;;6.68;100.00
11077;BME280;5591;42.626;23.380;2022-10-19T05:38:14;94630.81;;;6.80;100.00
11077;BME280;5591;42.626;23.380;2022-10-19T05:40:45;94628.81;;;6.99;100.00
11077;BME280;5591;42.626;23.380;2022-10-19T05:43:12;94640.97;;;7.24;100.00
11077;BME280;5591;42.626;23.380;2022-10-19T05:45:39;94603.59;;;7.16;100.00
11077;BME280;5591;42.626;23.380;2022-10-19T05:48:05;94642.66;;;7.41;100.00
11077;BME280;5591;42.626;23.380;2022-10-19T05:50:32;94625.84;;;7.51;100.00
11077;BME280;5591;42.626;23.380;2022-10-19T05:52:59;94642.53;;;7.58;100.00
11077;BME280;5591;42.626;23.380;2022-10-19T05:55:26;94634.38;;;7.85;100.00
11077;BME280;5591;42.626;23.380;2022-10-19T05:57:54;94641.09;;;7.88;100.00
11077;BME280;5591;42.626;23.380;2022-10-19T06:00:20;94632.78;;;8.16;100.00
11077;BME280;5591;42.626;23.380;2022-10-19T06:02:47;94637.72;;;8.35;100.00
11077;BME280;5591;42.626;23.380;2022-10-19T06:05:14;94636.88;;;8.59;100.00
11077;BME280;5591;42.626;23.380;2022-10-19T06:07:41;94635.66;;;8.85;100.00
11077;BME280;5591;42.626;23.380;2022-10-19T06:10:08;94631.69;;;8.97;100.00
11077;BME280;5591;42.626;23.380;2022-10-19T06:12:35;94638.84;;;9.11;99.95
11077;BME280;5591;42.626;23.380;2022-10-19T06:15:04;94634.00;;;9.31;99.33
11077;BME280;5591;42.626;23.380;2022-10-19T06:17:31;94640.66;;;9.49;98.15
11077;BME280;5591;42.626;23.380;2022-10-19T06:19:58;94643.56;;;9.54;95.43
11077;BME280;5591;42.626;23.380;2022-10-19T06:22:25;94653.06;;;9.55;96.83
11077;BME280;5591;42.626;23.380;2022-10-19T06:24:51;94654.00;;;9.62;96.69
11077;BME280;5591;42.626;23.380;2022-10-19T06:27:18;94658.94;;;9.87;95.79
11077;BME280;5591;42.626;23.380;2022-10-19T06:29:45;94663.22;;;10.11;93.26
11077;BME280;5591;42.626;23.380;2022-10-19T06:32:13;94653.44;;;10.05;92.89
11077;BME280;5591;42.626;23.380;2022-10-19T06:34:40;94662.94;;;9.76;94.23
11077;BME280;5591;42.626;23.380;2022-10-19T06:37:07;94656.31;;;9.87;94.42
11077;BME280;5591;42.626;23.380;2022-10-19T06:39:33;94661.31;;;9.97;94.03
11077;BME280;5591;42.626;23.380;2022-10-19T06:42:00;94661.56;;;9.87;94.53
11077;BME280;5591;42.626;23.380;2022-10-19T06:44:27;94659.84;;;10.02;94.17
11077;BME280;5591;42.626;23.380;2022-10-19T06:46:54;94655.94;;;10.21;93.77
11077;BME280;5591;42.626;23.380;2022-10-19T06:49:22;94653.38;;;10.35;92.53
11077;BME280;5591;42.626;23.380;2022-10-19T06:51:48;94644.53;;;10.51;92.38
11077;BME280;5591;42.626;23.380;2022-10-19T06:54:15;94646.91;;;10.46;92.18
11077;BME280;5591;42.626;23.380;2022-10-19T06:56:42;94649.16;;;10.49;93.85
11077;BME280;5591;42.626;23.380;2022-10-19T06:59:09;94650.78;;;10.50;93.53
11077;BME280;5591;42.626;23.380;2022-10-19T07:01:37;94632.19;;;10.88;91.28
11077;BME280;5591;42.626;23.380;2022-10-19T07:04:04;94636.31;;;11.20;87.95
11077;BME280;5591;42.626;23.380;2022-10-19T07:06:32;94632.72;;;11.56;83.98
11077;BME280;5591;42.626;23.380;2022-10-19T07:08:59;94621.94;;;11.66;82.68
11077;BME280;5591;42.626;23.380;2022-10-19T07:11:27;94622.19;;;12.06;79.19
11077;BME280;5591;42.626;23.380;2022-10-19T07:13:54;94620.25;;;12.15;77.92
11077;BME280;5591;42.626;23.380;2022-10-19T07:16:21;94600.56;;;12.32;76.22
11077;BME280;5591;42.626;23.380;2022-10-19T07:18:49;94616.34;;;12.52;76.01
11077;BME280;5591;42.626;23.380;2022-10-19T07:21:17;94625.06;;;12.32;79.01
11077;BME280;5591;42.626;23.380;2022-10-19T07:23:46;94625.31;;;11.95;82.11
11077;BME280;5591;42.626;23.380;2022-10-19T07:26:15;94627.31;;;11.93;83.88
11077;BME280;5591;42.626;23.380;2022-10-19T07:28:44;94617.34;;;12.10;81.69
11077;BME280;5591;42.626;23.380;2022-10-19T07:31:13;94613.56;;;12.60;76.35
11077;BME280;5591;42.626;23.380;2022-10-19T07:33:42;94611.28;;;12.78;69.53
11077;BME280;5591;42.626;23.380;2022-10-19T07:36:09;94611.50;;;13.11;66.81
11077;BME280;5591;42.626;23.380;2022-10-19T07:38:38;94608.81;;;13.38;63.57
11077;BME280;5591;42.626;23.380;2022-10-19T07:41:07;94603.84;;;13.16;66.14
11077;BME280;5591;42.626;23.380;2022-10-19T07:43:35;94600.34;;;13.49;65.24
11077;BME280;5591;42.626;23.380;2022-10-19T07:46:04;94565.91;;;12.55;66.54
11077;BME280;5591;42.626;23.380;2022-10-19T07:48:32;94597.53;;;13.10;71.83
11077;BME280;5591;42.626;23.380;2022-10-19T07:51:00;94596.78;;;13.23;66.81
11077;BME280;5591;42.626;23.380;2022-10-19T07:53:27;94586.03;;;13.78;64.53
11077;BME280;5591;42.626;23.380;2022-10-19T07:55:54;94589.38;;;13.99;60.73
11077;BME280;5591;42.626;23.380;2022-10-19T07:58:22;94584.97;;;13.59;63.63
11077;BME280;5591;42.626;23.380;2022-10-19T08:00:49;94576.56;;;13.90;63.35
11077;BME280;5591;42.626;23.380;2022-10-19T08:03:16;94576.81;;;14.21;60.76
11077;BME280;5591;42.626;23.380;2022-10-19T08:05:43;94554.13;;;14.39;59.36
11077;BME280;5591;42.626;23.380;2022-10-19T08:08:09;94579.50;;;14.53;59.17
11077;BME280;5591;42.626;23.380;2022-10-19T08:10:36;94576.03;;;14.20;60.05
11077;BME280;5591;42.626;23.380;2022-10-19T08:13:03;94578.91;;;14.51;60.60
11077;BME280;5591;42.626;23.380;2022-10-19T08:15:31;94578.63;;;14.01;62.00
11077;BME280;5591;42.626;23.380;2022-10-19T08:17:58;94574.13;;;13.95;63.66
11077;BME280;5591;42.626;23.380;2022-10-19T08:20:25;94575.31;;;13.79;67.30
11077;BME280;5591;42.626;23.380;2022-10-19T08:22:52;94577.38;;;14.03;66.94
11077;BME280;5591;42.626;23.380;2022-10-19T08:25:19;94569.84;;;13.81;67.62
11077;BME280;5591;42.626;23.380;2022-10-19T08:27:46;94570.72;;;14.14;67.88
11077;BME280;5591;42.626;23.380;2022-10-19T08:30:12;94564.25;;;14.62;63.82
11077;BME280;5591;42.626;23.380;2022-10-19T08:58:40;94521.56;;;15.85;54.85
11077;BME280;5591;42.626;23.380;2022-10-19T09:01:15;94542.94;;;16.21;54.14
11077;BME280;5591;42.626;23.380;2022-10-19T09:03:50;94539.84;;;16.24;54.00
11077;BME280;5591;42.626;23.380;2022-10-19T09:06:23;94526.63;;;16.24;53.42
11077;BME280;5591;42.626;23.380;2022-10-19T09:08:53;94532.03;;;16.66;52.65
11077;BME280;5591;42.626;23.380;2022-10-19T09:11:22;94536.53;;;16.04;53.48
11077;BME280;5591;42.626;23.380;2022-10-19T09:13:57;94526.16;;;16.27;53.47
11077;BME280;5591;42.626;23.380;2022-10-19T09:16:25;94521.75;;;16.52;53.00
11077;BME280;5591;42.626;23.380;2022-10-19T09:18:52;94524.66;;;16.68;52.56
11077;BME280;5591;42.626;23.380;2022-10-19T09:21:22;94525.28;;;16.88;53.15
11077;BME280;5591;42.626;23.380;2022-10-19T09:23:54;94525.41;;;16.93;52.38
11077;BME280;5591;42.626;23.380;2022-10-19T09:26:27;94510.94;;;16.96;51.57
11077;BME280;5591;42.626;23.380;2022-10-19T09:28:59;94518.03;;;17.38;51.20
11077;BME280;5591;42.626;23.380;2022-10-19T09:31:31;94516.94;;;16.85;52.12
11077;BME280;5591;42.626;23.380;2022-10-19T09:34:01;94524.78;;;16.98;51.76
11077;BME280;5591;42.626;23.380;2022-10-19T09:36:37;94517.19;;;17.01;52.12
11077;BME280;5591;42.626;23.380;2022-10-19T09:39:05;94508.41;;;17.01;52.22
11077;BME280;5591;42.626;23.380;2022-10-19T09:41:32;94533.91;;;17.02;51.61
11077;BME280;5591;42.626;23.380;2022-10-19T09:44:01;94547.34;;;17.25;51.64
11077;BME280;5591;42.626;23.380;2022-10-19T09:46:33;94519.25;;;16.99;52.03
11077;BME280;5591;42.626;23.380;2022-10-19T09:49:03;94519.59;;;16.85;52.13
11077;BME280;5591;42.626;23.380;2022-10-19T09:51:39;94516.50;;;17.24;51.42
11077;BME280;5591;42.626;23.380;2022-10-19T09:54:22;94528.75;;;17.07;50.74
11077;BME280;5591;42.626;23.380;2022-10-19T09:56:52;94524.44;;;17.30;50.65
11077;BME280;5591;42.626;23.380;2022-10-19T09:59:23;94519.78;;;17.26;50.07
11077;BME280;5591;42.626;23.380;2022-10-19T10:02:02;94516.22;;;17.32;49.93
11077;BME280;5591;42.626;23.380;2022-10-19T10:04:29;94523.25;;;17.44;49.97
11077;BME280;5591;42.626;23.380;2022-10-19T10:06:57;94508.94;;;17.92;49.39
11077;BME280;5591;42.626;23.380;2022-10-19T10:09:25;94507.97;;;17.22;50.08
11077;BME280;5591;42.626;23.380;2022-10-19T10:11:56;94503.66;;;17.74;49.66
11077;BME280;5591;42.626;23.380;2022-10-19T10:14:27;94493.34;;;17.66;49.59
11077;BME280;5591;42.626;23.380;2022-10-19T10:16:56;94435.91;;;17.43;49.32
11077;BME280;5591;42.626;23.380;2022-10-19T10:19:28;94493.66;;;18.17;48.60
11077;BME280;5591;42.626;23.380;2022-10-19T10:21:56;94498.63;;;18.25;47.98
11077;BME280;5591;42.626;23.380;2022-10-19T10:24:24;94493.47;;;17.89;46.90
11077;BME280;5591;42.626;23.380;2022-10-19T10:26:53;94441.53;;;18.05;45.75
11077;BME280;5591;42.626;23.380;2022-10-19T10:29:22;94483.56;;;18.37;46.29
11077;BME280;5591;42.626;23.380;2022-10-19T10:31:53;94480.72;;;18.21;46.17
11077;BME280;5591;42.626;23.380;2022-10-19T10:34:32;94463.84;;;18.15;46.35
11077;BME280;5591;42.626;23.380;2022-10-19T10:37:00;94453.94;;;18.22;46.42
11077;BME280;5591;42.626;23.380;2022-10-19T10:39:29;94464.09;;;18.25;46.19
11077;BME280;5591;42.626;23.380;2022-10-19T10:42:00;94456.50;;;18.40;46.01
11077;BME280;5591;42.626;23.380;2022-10-19T10:44:32;94449.34;;;18.41;45.96
11077;BME280;5591;42.626;23.380;2022-10-19T10:47:04;94433.28;;;18.36;46.14
11077;BME280;5591;42.626;23.380;2022-10-19T10:49:39;94433.63;;;18.85;44.45
11077;BME280;5591;42.626;23.380;2022-10-19T10:52:09;94448.56;;;18.86;43.90
11077;BME280;5591;42.626;23.380;2022-10-19T10:54:38;94430.41;;;19.46;42.60
11077;BME280;5591;42.626;23.380;2022-10-19T10:57:10;94385.50;;;19.38;40.71
11077;BME280;5591;42.626;23.380;2022-10-19T10:59:45;94432.41;;;20.11;40.78
11077;BME280;5591;42.626;23.380;2022-10-19T11:02:25;94429.13;;;19.48;40.65
11077;BME280;5591;42.626;23.380;2022-10-19T11:04:59;94412.56;;;19.91;40.21
11077;BME280;5591;42.626;23.380;2022-10-19T11:07:28;94420.22;;;19.71;39.47
11077;BME280;5591;42.626;23.380;2022-10-19T11:09:57;94416.00;;;20.68;38.66
11077;BME280;5591;42.626;23.380;2022-10-19T11:12:32;94412.94;;;20.43;38.74
11077;BME280;5591;42.626;23.380;2022-10-19T11:15:05;94410.13;;;21.26;38.56
11077;BME280;5591;42.626;23.380;2022-10-19T11:17:50;94403.94;;;21.42;38.52
11077;BME280;5591;42.626;23.380;2022-10-19T11:20:20;94355.66;;;21.27;37.47
11077;BME280;5591;42.626;23.380;2022-10-19T11:22:53;94402.13;;;21.47;37.77
11077;BME280;5591;42.626;23.380;2022-10-19T11:25:30;94401.88;;;21.70;37.33
11077;BME280;5591;42.626;23.380;2022-10-19T11:28:15;94377.91;;;22.07;35.83
11077;BME280;5591;42.626;23.380;2022-10-19T11:30:54;94392.66;;;21.61;36.08
11077;BME280;5591;42.626;23.380;2022-10-19T11:33:36;94383.19;;;21.75;35.78
11077;BME280;5591;42.626;23.380;2022-10-19T11:36:13;94388.94;;;21.89;35.33
11077;BME280;5591;42.626;23.380;2022-10-19T11:38:50;94383.13;;;22.28;34.69
11077;BME280;5591;42.626;23.380;2022-10-19T11:41:28;94370.72;;;22.44;34.61
11077;BME280;5591;42.626;23.380;2022-10-19T11:44:10;94382.75;;;22.41;34.17
11077;BME280;5591;42.626;23.380;2022-10-19T11:46:53;94376.22;;;22.64;34.20
11077;BME280;5591;42.626;23.380;2022-10-19T11:49:44;94373.00;;;22.62;33.25
11077;BME280;5591;42.626;23.380;2022-10-19T11:52:17;94372.66;;;22.53;32.54
11077;BME280;5591;42.626;23.380;2022-10-19T11:54:56;94359.19;;;22.85;32.26
11077;BME280;5591;42.626;23.380;2022-10-19T11:57:29;94352.50;;;23.38;32.09
11077;BME280;5591;42.626;23.380;2022-10-19T12:00:03;94362.31;;;22.67;32.63
11077;BME280;5591;42.626;23.380;2022-10-19T12:02:53;94353.72;;;23.87;32.09
11077;BME280;5591;42.626;23.380;2022-10-19T12:05:28;94343.75;;;24.83;31.05
11077;BME280;5591;42.626;23.380;2022-10-19T12:08:07;94342.75;;;24.09;31.67
11077;BME280;5591;42.626;23.380;2022-10-19T12:10:46;94351.16;;;23.31;32.62
11077;BME280;5591;42.626;23.380;2022-10-19T12:13:19;94342.75;;;24.14;31.85
11077;BME280;5591;42.626;23.380;2022-10-19T12:15:50;94330.00;;;23.34;31.43
11077;BME280;5591;42.626;23.380;2022-10-19T12:18:22;94343.47;;;23.64;31.22
11077;BME280;5591;42.626;23.380;2022-10-19T12:20:56;94339.84;;;23.24;31.24
11077;BME280;5591;42.626;23.380;2022-10-19T12:23:25;94327.56;;;23.33;31.49
11077;BME280;5591;42.626;23.380;2022-10-19T12:25:55;94325.56;;;24.30;31.20
11077;BME280;5591;42.626;23.380;2022-10-19T12:28:26;94327.34;;;23.49;32.79
11077;BME280;5591;42.626;23.380;2022-10-19T12:30:55;94327.47;;;23.99;31.48
11077;BME280;5591;42.626;23.380;2022-10-19T12:33:27;94324.63;;;23.39;32.89
11077;BME280;5591;42.626;23.380;2022-10-19T12:36:07;94323.34;;;23.62;32.73
11077;BME280;5591;42.626;23.380;2022-10-19T12:38:43;94315.34;;;23.82;32.66
11077;BME280;5591;42.626;23.380;2022-10-19T12:41:18;94320.97;;;23.65;32.26
11077;BME280;5591;42.626;23.380;2022-10-19T12:43:59;94312.44;;;23.88;32.18
11077;BME280;5591;42.626;23.380;2022-10-19T12:46:35;94320.72;;;23.87;31.67
11077;BME280;5591;42.626;23.380;2022-10-19T12:49:35;94322.59;;;24.16;31.95
11077;BME280;5591;42.626;23.380;2022-10-19T12:52:04;94318.56;;;24.69;32.15
11077;BME280;5591;42.626;23.380;2022-10-19T12:54:35;94317.25;;;24.01;32.33
11077;BME280;5591;42.626;23.380;2022-10-19T12:57:19;94329.03;;;24.35;32.18
11077;BME280;5591;42.626;23.380;2022-10-19T12:59:57;94334.63;;;22.98;32.70
11077;BME280;5591;42.626;23.380;2022-10-19T13:02:28;94305.84;;;23.29;32.21
11077;BME280;5591;42.626;23.380;2022-10-19T13:04:55;94319.59;;;23.63;32.77
11077;BME280;5591;42.626;23.380;2022-10-19T13:07:25;94311.78;;;23.41;32.31
11077;BME280;5591;42.626;23.380;2022-10-19T13:09:59;94321.78;;;23.71;31.68
11077;BME280;5591;42.626;23.380;2022-10-19T13:12:42;94319.38;;;23.84;32.24
11077;BME280;5591;42.626;23.380;2022-10-19T13:21:46;94308.41;;;24.16;32.74
11077;BME280;5591;42.626;23.380;2022-10-19T13:24:26;94326.38;;;24.40;32.97
11077;BME280;5591;42.626;23.380;2022-10-19T13:27:25;94304.06;;;24.50;33.34
11077;BME280;5591;42.626;23.380;2022-10-19T13:29:52;94266.28;;;24.21;32.59
11077;BME280;5591;42.626;23.380;2022-10-19T13:32:32;94305.69;;;24.46;33.36
11077;BME280;5591;42.626;23.380;2022-10-19T13:35:31;94301.41;;;25.33;32.53
11077;BME280;5591;42.626;23.380;2022-10-19T13:38:26;94301.88;;;24.87;31.87
11077;BME280;5591;42.626;23.380;2022-10-19T13:41:04;94299.34;;;25.20;32.07
11077;BME280;5591;42.626;23.380;2022-10-19T13:43:33;94302.53;;;25.27;32.16
11077;BME280;5591;42.626;23.380;2022-10-19T13:46:06;94296.13;;;25.08;32.94
11077;BME280;5591;42.626;23.380;2022-10-19T13:49:07;94284.50;;;26.14;31.88
11077;BME280;5591;42.626;23.380;2022-10-19T13:51:48;94287.03;;;26.01;32.12
11077;BME280;5591;42.626;23.380;2022-10-19T13:54:29;94288.81;;;25.77;32.43
11077;BME280;5591;42.626;23.380;2022-10-19T13:57:12;94288.00;;;26.95;31.55
11077;BME280;5591;42.626;23.380;2022-10-19T14:00:00;94279.06;;;26.76;31.44